Time;durP1;ratioP1;P1;durP2;ratioP2;P2;SDS_P1;SDS_P2;PMS_P1;PMS_P2;Temp;Humidity;BMP_temperature;BMP_pressure;BME280_temperature;BME280_humidity;BME280_pressure;Samples;Min_cycle;Max_cycle;Signal;HPM_P1;HPM_P2
2024/01/09 00:00:42;;;;;;;7.80;5.22;;;;;;;;;;5048257;28;20041;-67
2024/01/09 00:03:07;;;;;;;8.15;5.90;;;;;;;;;;5049707;28;20473;-68
2024/01/09 00:05:33;;;;;;;7.68;5.85;;;;;;;;;;5050701;28;20040;-66
2024/01/09 00:07:58;;;;;;;6.57;5.60;;;;;;;;;;5050736;28;20450;-63
2024/01/09 00:10:23;;;;;;;6.75;5.68;;;;;;;;;;5050224;28;20056;-68
2024/01/09 00:12:49;;;;;;;9.18;5.97;;;;;;;;;;5047974;28;20033;-66
2024/01/09 00:15:14;;;;;;;8.02;5.40;;;;;;;;;;5048446;28;20194;-68
2024/01/09 00:17:41;;;;;;;7.70;5.28;;;;;;;;;;5050628;28;20025;-67
2024/01/09 00:20:07;;;;;;;7.57;5.50;;;;;;;;;;5049327;28;20036;-68
2024/01/09 00:22:33;;;;;;;10.90;5.65;;;;;;;;;;5050263;28;20033;-66
2024/01/09 00:24:58;;;;;;;7.75;5.20;;;;;;;;;;5031811;28;20036;-64
2024/01/09 00:27:23;;;;;;;8.90;5.75;;;;;;;;;;5049973;28;20033;-66
2024/01/09 00:29:49;;;;;;;7.82;5.45;;;;;;;;;;5050341;28;20040;-68
2024/01/09 00:32:14;;;;;;;7.55;5.50;;;;;;;;;;5047561;28;20052;-67
2024/01/09 00:34:41;;;;;;;7.43;5.68;;;;;;;;;;5049360;28;20433;-66
2024/01/09 00:37:06;;;;;;;8.57;5.72;;;;;;;;;;5048008;28;20044;-66
2024/01/09 00:39:32;;;;;;;7.30;5.15;;;;;;;;;;5050173;28;20036;-68
2024/01/09 00:41:57;;;;;;;11.05;5.50;;;;;;;;;;5048834;28;20411;-64
2024/01/09 00:44:22;;;;;;;6.95;5.50;;;;;;;;;;5047256;28;20127;-65
2024/01/09 00:46:48;;;;;;;7.40;5.20;;;;;;;;;;5049792;28;20044;-68
2024/01/09 00:49:13;;;;;;;8.13;5.28;;;;;;;;;;5049333;28;20036;-68
2024/01/09 00:51:38;;;;;;;7.35;5.05;;;;;;;;;;5049952;28;20487;-68
2024/01/09 00:54:04;;;;;;;8.13;5.32;;;;;;;;;;5040711;28;20091;-69
2024/01/09 00:56:29;;;;;;;5.97;4.50;;;;;;;;;;5041110;28;20025;-68
2024/01/09 00:58:55;;;;;;;7.00;4.93;;;;;;;;;;5049325;28;20033;-69
2024/01/09 01:01:20;;;;;;;8.80;5.32;;;;;;;;;;5047458;28;20691;-68
2024/01/09 01:03:45;;;;;;;7.85;4.97;;;;;;;;;;5050624;28;20033;-67
2024/01/09 01:06:11;;;;;;;7.70;5.03;;;;;;;;;;5050150;28;20132;-69
2024/01/09 01:08:37;;;;;;;7.03;4.90;;;;;;;;;;5048985;28;20089;-69
2024/01/09 01:11:03;;;;;;;6.78;4.97;;;;;;;;;;5025619;28;20033;-66
2024/01/09 01:13:30;;;;;;;10.02;5.32;;;;;;;;;;5048709;28;20033;-69
2024/01/09 01:15:55;;;;;;;6.97;5.45;;;;;;;;;;5054224;28;20163;-68
2024/01/09 01:18:20;;;;;;;8.32;5.20;;;;;;;;;;5053126;28;20104;-69
2024/01/09 01:20:46;;;;;;;7.63;5.00;;;;;;;;;;5053734;28;20445;-68
2024/01/09 01:23:11;;;;;;;9.00;5.20;;;;;;;;;;5052982;28;20037;-68
2024/01/09 01:25:37;;;;;;;6.80;4.68;;;;;;;;;;5054120;28;20040;-68
2024/01/09 01:28:03;;;;;;;7.28;4.78;;;;;;;;;;5035299;28;20032;-64
2024/01/09 01:30:28;;;;;;;6.35;4.93;;;;;;;;;;5053708;28;20029;-67
2024/01/09 01:32:54;;;;;;;8.02;6.57;;;;;;;;;;5052360;28;20033;-68
2024/01/09 01:35:19;;;;;;;7.65;4.72;;;;;;;;;;5053152;28;20647;-68
2024/01/09 01:37:44;;;;;;;8.05;5.10;;;;;;;;;;5053823;28;20025;-68
2024/01/09 01:40:10;;;;;;;8.00;5.03;;;;;;;;;;5052749;28;20079;-68
2024/01/09 01:42:36;;;;;;;7.78;5.00;;;;;;;;;;5053327;28;20482;-70
2024/01/09 01:45:01;;;;;;;8.60;5.07;;;;;;;;;;5051242;28;20087;-63
2024/01/09 01:47:27;;;;;;;7.85;4.90;;;;;;;;;;5053320;28;20450;-67
2024/01/09 01:49:53;;;;;;;5.88;4.68;;;;;;;;;;5033175;28;20044;-66
2024/01/09 01:52:19;;;;;;;7.57;4.90;;;;;;;;;;5052627;28;20037;-67
2024/01/09 01:54:46;;;;;;;7.68;4.85;;;;;;;;;;5052739;28;20059;-68
2024/01/09 01:57:12;;;;;;;8.13;5.10;;;;;;;;;;5033979;28;20032;-68
2024/01/09 01:59:42;;;;;;;6.63;4.55;;;;;;;;;;5050885;28;20040;-63
2024/01/09 02:02:07;;;;;;;8.02;4.72;;;;;;;;;;5046899;28;20032;-69
2024/01/09 02:04:34;;;;;;;7.47;4.82;;;;;;;;;;5052398;28;20037;-66
2024/01/09 02:06:59;;;;;;;7.75;4.85;;;;;;;;;;5051656;28;20064;-68
2024/01/09 02:09:25;;;;;;;8.02;5.20;;;;;;;;;;5052352;28;20068;-68
2024/01/09 02:11:51;;;;;;;7.68;4.80;;;;;;;;;;5054447;28;20036;-67
2024/01/09 02:14:16;;;;;;;7.40;4.85;;;;;;;;;;5057586;28;20036;-68
2024/01/09 02:16:42;;;;;;;7.82;4.80;;;;;;;;;;5058593;28;20040;-67
2024/01/09 02:19:07;;;;;;;8.25;4.72;;;;;;;;;;5037578;28;20393;-66
2024/01/09 02:21:33;;;;;;;7.53;4.50;;;;;;;;;;5052772;28;20462;-68
2024/01/09 02:23:59;;;;;;;8.77;5.03;;;;;;;;;;5052675;28;20064;-68
2024/01/09 02:26:30;;;;;;;8.05;4.40;;;;;;;;;;5052462;28;20036;-67
2024/01/09 02:29:01;;;;;;;7.28;4.22;;;;;;;;;;5050766;28;20079;-66
2024/01/09 02:31:27;;;;;;;7.22;4.47;;;;;;;;;;5048748;28;20044;-68
2024/01/09 02:33:52;;;;;;;8.02;4.40;;;;;;;;;;5033597;28;20150;-68
2024/01/09 02:36:18;;;;;;;8.73;4.45;;;;;;;;;;5052535;28;20512;-67
2024/01/09 02:38:44;;;;;;;7.50;4.82;;;;;;;;;;5048562;28;20033;-68
2024/01/09 02:41:09;;;;;;;7.07;4.47;;;;;;;;;;5037862;28;20143;-66
2024/01/09 02:43:34;;;;;;;8.07;4.20;;;;;;;;;;5050248;28;20078;-66
2024/01/09 02:46:00;;;;;;;8.13;4.40;;;;;;;;;;5052272;28;20377;-68
2024/01/09 02:48:26;;;;;;;6.45;4.50;;;;;;;;;;5052051;28;20434;-67
2024/01/09 02:50:51;;;;;;;7.10;4.40;;;;;;;;;;5052826;28;20036;-67
2024/01/09 02:53:16;;;;;;;6.72;4.15;;;;;;;;;;5047413;28;20036;-67
2024/01/09 02:55:42;;;;;;;8.48;4.70;;;;;;;;;;5049837;28;20032;-67
2024/01/09 02:58:07;;;;;;;6.25;4.22;;;;;;;;;;5049214;28;20531;-64
2024/01/09 03:00:33;;;;;;;8.77;4.45;;;;;;;;;;5050065;28;20060;-67
2024/01/09 03:02:58;;;;;;;7.80;4.32;;;;;;;;;;5048943;28;20836;-67
2024/01/09 03:05:24;;;;;;;7.57;4.38;;;;;;;;;;5049428;28;20381;-68
2024/01/09 03:07:50;;;;;;;8.52;4.35;;;;;;;;;;5051166;28;20029;-67
2024/01/09 03:10:15;;;;;;;7.78;4.40;;;;;;;;;;5050300;28;20041;-68
2024/01/09 03:12:40;;;;;;;7.47;4.10;;;;;;;;;;5049933;28;20037;-66
2024/01/09 03:15:06;;;;;;;7.20;4.28;;;;;;;;;;5049826;28;20036;-64
2024/01/09 03:17:32;;;;;;;6.32;4.15;;;;;;;;;;5048233;28;20047;-69
2024/01/09 03:19:58;;;;;;;9.07;4.35;;;;;;;;;;5043956;28;20060;-66
2024/01/09 03:22:23;;;;;;;6.43;4.38;;;;;;;;;;5049973;28;20032;-68
2024/01/09 03:24:48;;;;;;;9.80;4.70;;;;;;;;;;5050625;28;20037;-68
2024/01/09 03:27:14;;;;;;;7.93;4.47;;;;;;;;;;5049003;28;20091;-66
2024/01/09 03:29:39;;;;;;;8.77;4.50;;;;;;;;;;5046467;28;20029;-68
2024/01/09 03:32:05;;;;;;;9.18;4.38;;;;;;;;;;5049263;28;20461;-68
2024/01/09 03:34:31;;;;;;;7.95;4.18;;;;;;;;;;5049750;28;20037;-68
2024/01/09 03:36:56;;;;;;;8.63;4.35;;;;;;;;;;5046987;28;20473;-67
2024/01/09 03:39:22;;;;;;;7.70;4.03;;;;;;;;;;5049785;28;20040;-68
2024/01/09 03:41:47;;;;;;;9.07;4.40;;;;;;;;;;5050127;28;20509;-68
2024/01/09 03:44:12;;;;;;;8.40;3.95;;;;;;;;;;5049953;28;20488;-66
2024/01/09 03:46:38;;;;;;;9.10;4.05;;;;;;;;;;5049412;28;20091;-66
2024/01/09 03:49:04;;;;;;;9.30;4.20;;;;;;;;;;5049779;28;20498;-68
2024/01/09 03:51:29;;;;;;;9.20;4.25;;;;;;;;;;5049951;28;20035;-68
2024/01/09 03:53:55;;;;;;;8.52;4.40;;;;;;;;;;5050974;28;20025;-68
2024/01/09 03:56:20;;;;;;;7.88;4.43;;;;;;;;;;5043185;28;20032;-67
2024/01/09 03:58:46;;;;;;;5.55;3.42;;;;;;;;;;5043280;28;20094;-68
2024/01/09 04:01:12;;;;;;;8.60;4.05;;;;;;;;;;5048624;28;20064;-64
2024/01/09 04:03:37;;;;;;;9.25;4.22;;;;;;;;;;5040422;28;20042;-65
2024/01/09 04:06:03;;;;;;;7.40;3.97;;;;;;;;;;5046876;28;20044;-67
2024/01/09 04:08:28;;;;;;;8.50;4.32;;;;;;;;;;5050959;28;20025;-68
2024/01/09 04:10:54;;;;;;;9.98;4.13;;;;;;;;;;5050225;28;20435;-69
2024/01/09 04:13:20;;;;;;;8.48;4.50;;;;;;;;;;5050658;28;20203;-68
2024/01/09 04:15:45;;;;;;;7.50;4.00;;;;;;;;;;5049303;28;20037;-68
2024/01/09 04:18:12;;;;;;;10.30;4.55;;;;;;;;;;5049996;28;20041;-64
2024/01/09 04:20:39;;;;;;;8.88;4.25;;;;;;;;;;5049724;28;20033;-68
2024/01/09 04:23:04;;;;;;;9.18;4.55;;;;;;;;;;5047486;28;20094;-67
2024/01/09 04:25:29;;;;;;;6.97;4.05;;;;;;;;;;5043531;28;20645;-65
2024/01/09 04:27:55;;;;;;;7.88;4.07;;;;;;;;;;5047359;28;20072;-64
2024/01/09 04:30:20;;;;;;;8.90;4.25;;;;;;;;;;5044575;28;20025;-63
2024/01/09 04:32:46;;;;;;;7.07;3.92;;;;;;;;;;5042515;28;20533;-64
2024/01/09 04:35:11;;;;;;;8.32;4.28;;;;;;;;;;5049734;28;20397;-64
2024/01/09 04:37:36;;;;;;;7.85;3.90;;;;;;;;;;5050315;28;20040;-64
2024/01/09 04:40:02;;;;;;;9.38;4.55;;;;;;;;;;5050282;28;20029;-64
2024/01/09 04:42:27;;;;;;;7.47;4.13;;;;;;;;;;5050081;28;20045;-63
2024/01/09 04:44:53;;;;;;;10.38;4.80;;;;;;;;;;5053653;28;20120;-64
2024/01/09 04:47:19;;;;;;;9.35;4.57;;;;;;;;;;5052856;28;20130;-64
2024/01/09 04:49:45;;;;;;;9.05;4.35;;;;;;;;;;5054633;28;20041;-63
2024/01/09 04:52:10;;;;;;;11.13;4.80;;;;;;;;;;5055244;28;20483;-63
2024/01/09 04:54:36;;;;;;;9.35;4.90;;;;;;;;;;5054025;28;20021;-63
2024/01/09 04:57:01;;;;;;;8.75;4.35;;;;;;;;;;5054851;28;20398;-64
2024/01/09 04:59:27;;;;;;;9.80;5.22;;;;;;;;;;5053587;28;20033;-64
2024/01/09 05:01:52;;;;;;;8.75;4.65;;;;;;;;;;5054510;28;20481;-64
2024/01/09 05:04:17;;;;;;;11.38;5.00;;;;;;;;;;5053973;28;20025;-63
2024/01/09 05:06:43;;;;;;;9.18;3.83;;;;;;;;;;5054609;28;20029;-64
2024/01/09 05:09:09;;;;;;;8.98;4.25;;;;;;;;;;5053792;28;20041;-63
2024/01/09 05:11:35;;;;;;;8.82;4.65;;;;;;;;;;5053116;28;20106;-63
2024/01/09 05:14:00;;;;;;;9.65;4.60;;;;;;;;;;5053556;28;20041;-63
2024/01/09 05:16:27;;;;;;;7.78;4.18;;;;;;;;;;5053508;28;20068;-63
2024/01/09 05:18:53;;;;;;;9.65;4.65;;;;;;;;;;5052504;28;20036;-63
2024/01/09 05:21:18;;;;;;;8.10;4.03;;;;;;;;;;5052504;28;20037;-63
2024/01/09 05:23:43;;;;;;;11.95;5.07;;;;;;;;;;5044386;28;20056;-63
2024/01/09 05:26:09;;;;;;;10.15;5.25;;;;;;;;;;5053527;28;20040;-63
2024/01/09 05:28:34;;;;;;;14.43;5.35;;;;;;;;;;5050808;28;20111;-62
2024/01/09 05:31:01;;;;;;;8.60;4.32;;;;;;;;;;5050946;28;20430;-63
2024/01/09 05:33:27;;;;;;;7.47;4.13;;;;;;;;;;5052676;28;20395;-63
2024/01/09 05:35:52;;;;;;;10.07;4.32;;;;;;;;;;5053017;28;20029;-63
2024/01/09 05:38:17;;;;;;;9.20;4.38;;;;;;;;;;5051375;28;20116;-63
2024/01/09 05:40:43;;;;;;;8.02;4.38;;;;;;;;;;5045132;28;20477;-65
2024/01/09 05:43:08;;;;;;;10.00;5.00;;;;;;;;;;5027546;28;20075;-63
2024/01/09 05:45:33;;;;;;;9.13;4.32;;;;;;;;;;5051558;28;20880;-63
2024/01/09 05:47:59;;;;;;;9.73;4.90;;;;;;;;;;5034070;28;20040;-63
2024/01/09 05:50:24;;;;;;;10.55;4.70;;;;;;;;;;5053035;28;20033;-63
2024/01/09 05:52:50;;;;;;;10.35;4.57;;;;;;;;;;5051711;28;20032;-63
2024/01/09 05:55:15;;;;;;;9.50;5.03;;;;;;;;;;5051374;28;20055;-64
2024/01/09 05:57:42;;;;;;;12.23;5.57;;;;;;;;;;5033543;28;20025;-64
2024/01/09 06:00:08;;;;;;;11.60;5.03;;;;;;;;;;5050943;28;20112;-63
2024/01/09 06:02:34;;;;;;;12.20;4.95;;;;;;;;;;5050615;28;20041;-63
2024/01/09 06:04:59;;;;;;;13.15;4.90;;;;;;;;;;5038185;28;20151;-63
2024/01/09 06:07:25;;;;;;;11.05;5.03;;;;;;;;;;5033014;28;20059;-63
2024/01/09 06:09:50;;;;;;;8.40;4.45;;;;;;;;;;5051715;28;20465;-63
2024/01/09 06:12:15;;;;;;;13.40;5.20;;;;;;;;;;5052245;28;20032;-63
2024/01/09 06:14:41;;;;;;;11.60;5.18;;;;;;;;;;5050314;28;20060;-63
2024/01/09 06:17:06;;;;;;;10.65;4.97;;;;;;;;;;5038054;28;20037;-63
2024/01/09 06:19:31;;;;;;;11.20;5.22;;;;;;;;;;5048425;28;20388;-63
2024/01/09 06:21:57;;;;;;;9.13;4.63;;;;;;;;;;5052596;28;20040;-64
2024/01/09 06:24:22;;;;;;;10.30;4.72;;;;;;;;;;5046047;28;20029;-63
2024/01/09 06:26:48;;;;;;;12.02;5.28;;;;;;;;;;5050620;28;20137;-63
2024/01/09 06:29:13;;;;;;;12.50;5.10;;;;;;;;;;5053549;28;20037;-63
2024/01/09 06:31:40;;;;;;;11.93;5.28;;;;;;;;;;5048982;28;20094;-63
2024/01/09 06:34:06;;;;;;;9.45;4.63;;;;;;;;;;5052944;28;20476;-63
2024/01/09 06:36:31;;;;;;;14.65;5.65;;;;;;;;;;5052193;28;20120;-63
2024/01/09 06:38:57;;;;;;;9.35;4.55;;;;;;;;;;5052958;28;20454;-63
2024/01/09 06:41:22;;;;;;;11.77;4.97;;;;;;;;;;5053276;28;20049;-62
2024/01/09 06:43:48;;;;;;;11.23;5.30;;;;;;;;;;5057281;28;20029;-64
2024/01/09 06:46:13;;;;;;;8.93;4.47;;;;;;;;;;5054551;28;20064;-65
2024/01/09 06:48:38;;;;;;;10.25;4.95;;;;;;;;;;5052051;28;20032;-62
2024/01/09 06:51:04;;;;;;;8.80;4.43;;;;;;;;;;5016550;28;20493;-63
2024/01/09 06:53:29;;;;;;;11.07;4.80;;;;;;;;;;5035644;28;20040;-63
2024/01/09 06:55:55;;;;;;;10.27;4.80;;;;;;;;;;5049753;28;20130;-63
2024/01/09 06:58:20;;;;;;;11.68;4.78;;;;;;;;;;5051463;28;20037;-63
2024/01/09 07:00:45;;;;;;;7.65;4.18;;;;;;;;;;5051966;28;20086;-62
2024/01/09 07:03:11;;;;;;;11.30;5.13;;;;;;;;;;5050518;28;20033;-63
2024/01/09 07:05:36;;;;;;;12.43;6.22;;;;;;;;;;5051399;28;20033;-63
2024/01/09 07:08:03;;;;;;;13.27;5.60;;;;;;;;;;5049987;28;20465;-63
2024/01/09 07:10:28;;;;;;;11.82;5.03;;;;;;;;;;5050851;28;20037;-64
2024/01/09 07:12:54;;;;;;;8.68;4.32;;;;;;;;;;5050786;28;20043;-63
2024/01/09 07:15:19;;;;;;;10.98;4.93;;;;;;;;;;5051131;28;20036;-63
2024/01/09 07:17:45;;;;;;;10.02;5.30;;;;;;;;;;5036430;28;20030;-63
2024/01/09 07:20:11;;;;;;;9.02;4.38;;;;;;;;;;5052214;28;20057;-63
2024/01/09 07:22:36;;;;;;;11.73;5.05;;;;;;;;;;5048804;28;20064;-63
2024/01/09 07:25:03;;;;;;;10.73;4.97;;;;;;;;;;5048978;28;20037;-65
2024/01/09 07:27:28;;;;;;;12.02;5.43;;;;;;;;;;5042871;28;20492;-64
2024/01/09 07:29:54;;;;;;;9.38;4.53;;;;;;;;;;5050889;28;20029;-63
2024/01/09 07:32:20;;;;;;;9.55;4.68;;;;;;;;;;5051136;28;20071;-63
2024/01/09 07:34:47;;;;;;;11.40;4.82;;;;;;;;;;5050612;28;20033;-63
2024/01/09 07:37:13;;;;;;;10.23;4.75;;;;;;;;;;5050365;28;20025;-63
2024/01/09 07:39:39;;;;;;;12.05;5.35;;;;;;;;;;5051111;28;20102;-63
2024/01/09 07:42:04;;;;;;;10.85;4.90;;;;;;;;;;5050573;28;20059;-63
2024/01/09 07:44:29;;;;;;;11.07;5.10;;;;;;;;;;5047044;28;20036;-62
2024/01/09 07:46:55;;;;;;;9.10;4.35;;;;;;;;;;5050678;28;20040;-63
2024/01/09 07:49:21;;;;;;;10.18;5.10;;;;;;;;;;5032486;28;20033;-63
2024/01/09 07:51:46;;;;;;;11.30;5.30;;;;;;;;;;5050208;28;20090;-63
2024/01/09 07:54:12;;;;;;;8.95;4.28;;;;;;;;;;5050947;28;20044;-62
2024/01/09 07:56:37;;;;;;;10.02;5.00;;;;;;;;;;5049587;28;20029;-63
2024/01/09 07:59:03;;;;;;;7.82;4.43;;;;;;;;;;5049634;28;20033;-63
2024/01/09 08:01:30;;;;;;;13.15;5.40;;;;;;;;;;5050921;28;20061;-64
2024/01/09 08:03:55;;;;;;;11.38;5.13;;;;;;;;;;5050833;28;20132;-63
2024/01/09 08:06:21;;;;;;;11.30;4.13;;;;;;;;;;5028863;28;20036;-63
2024/01/09 08:08:46;;;;;;;14.52;5.50;;;;;;;;;;5020517;28;20029;-63
2024/01/09 08:11:11;;;;;;;9.73;4.88;;;;;;;;;;5051775;28;20060;-63
2024/01/09 08:13:37;;;;;;;12.52;4.82;;;;;;;;;;5048769;28;20089;-64
2024/01/09 08:16:03;;;;;;;10.38;4.95;;;;;;;;;;5050523;28;20029;-63
2024/01/09 08:18:29;;;;;;;11.45;5.47;;;;;;;;;;5050194;28;20047;-63
2024/01/09 08:20:55;;;;;;;8.80;4.63;;;;;;;;;;5056017;28;20064;-63
2024/01/09 08:23:21;;;;;;;9.80;4.75;;;;;;;;;;5054499;28;20476;-63
2024/01/09 08:25:47;;;;;;;8.38;4.28;;;;;;;;;;5050856;28;20076;-63
2024/01/09 08:28:12;;;;;;;10.15;5.60;;;;;;;;;;5036608;28;20029;-63
2024/01/09 08:30:38;;;;;;;10.10;4.55;;;;;;;;;;5051857;28;20037;-64
2024/01/09 08:33:03;;;;;;;11.65;5.40;;;;;;;;;;5055540;28;20032;-63
2024/01/09 08:35:30;;;;;;;8.52;4.38;;;;;;;;;;5053086;28;20100;-63
2024/01/09 08:37:56;;;;;;;8.82;4.75;;;;;;;;;;5054064;28;20033;-63
2024/01/09 08:40:21;;;;;;;8.82;4.50;;;;;;;;;;5037088;28;20159;-63
2024/01/09 08:42:46;;;;;;;9.77;5.20;;;;;;;;;;5053411;28;20037;-63
2024/01/09 08:45:14;;;;;;;11.38;5.35;;;;;;;;;;5055290;28;20037;-63
2024/01/09 08:47:39;;;;;;;11.60;5.47;;;;;;;;;;5053989;28;20436;-63
2024/01/09 08:50:05;;;;;;;9.25;5.05;;;;;;;;;;5055201;28;20445;-63
2024/01/09 08:52:31;;;;;;;9.63;5.05;;;;;;;;;;5053909;28;20021;-63
2024/01/09 08:54:56;;;;;;;11.75;5.18;;;;;;;;;;5053031;28;20040;-62
2024/01/09 08:57:22;;;;;;;11.50;5.20;;;;;;;;;;5038236;28;20052;-63
2024/01/09 08:59:48;;;;;;;11.40;5.20;;;;;;;;;;5043791;28;20025;-63
2024/01/09 09:02:13;;;;;;;8.38;4.68;;;;;;;;;;5052347;28;20509;-63
2024/01/09 09:04:39;;;;;;;11.50;5.20;;;;;;;;;;5050962;28;20116;-64
2024/01/09 09:07:04;;;;;;;11.35;5.10;;;;;;;;;;5052666;28;22049;-63
2024/01/09 09:09:30;;;;;;;10.38;4.68;;;;;;;;;;5053023;28;20039;-63
2024/01/09 09:11:58;;;;;;;12.07;5.18;;;;;;;;;;5052095;28;20040;-62
2024/01/09 09:14:24;;;;;;;16.90;5.88;;;;;;;;;;5054651;28;20441;-63
2024/01/09 09:16:49;;;;;;;13.85;6.28;;;;;;;;;;5036414;28;20040;-64
2024/01/09 09:19:16;;;;;;;10.55;5.03;;;;;;;;;;5050622;28;20467;-64
2024/01/09 09:21:41;;;;;;;12.15;5.70;;;;;;;;;;5050653;28;20033;-63
2024/01/09 09:24:07;;;;;;;8.40;5.07;;;;;;;;;;5054421;28;20028;-63
2024/01/09 09:26:32;;;;;;;9.93;5.28;;;;;;;;;;5052089;28;20405;-62
2024/01/09 09:28:58;;;;;;;10.35;5.88;;;;;;;;;;5035729;28;20039;-62
2024/01/09 09:31:23;;;;;;;10.75;5.57;;;;;;;;;;5051197;28;20029;-62
2024/01/09 09:33:49;;;;;;;12.13;5.72;;;;;;;;;;5051077;28;20098;-63
2024/01/09 09:36:14;;;;;;;12.27;6.15;;;;;;;;;;5052939;28;20741;-63
2024/01/09 09:38:40;;;;;;;7.70;4.82;;;;;;;;;;5053220;28;20033;-63
2024/01/09 09:41:08;;;;;;;10.23;6.00;;;;;;;;;;5053013;28;20472;-63
2024/01/09 09:43:38;;;;;;;13.07;5.95;;;;;;;;;;5035998;28;20473;-62
2024/01/09 09:46:10;;;;;;;14.10;6.38;;;;;;;;;;5053498;28;20041;-63
2024/01/09 09:48:35;;;;;;;8.85;5.20;;;;;;;;;;5032695;28;20116;-63
2024/01/09 09:51:01;;;;;;;9.13;5.68;;;;;;;;;;5052879;28;20104;-63
2024/01/09 09:53:28;;;;;;;9.40;5.65;;;;;;;;;;5034161;28;20136;-63
2024/01/09 09:55:54;;;;;;;8.77;5.68;;;;;;;;;;5052263;28;20044;-63
2024/01/09 09:58:19;;;;;;;10.10;5.70;;;;;;;;;;5052155;28;20106;-62
2024/01/09 10:00:45;;;;;;;8.80;5.20;;;;;;;;;;5050593;28;20040;-62
2024/01/09 10:03:11;;;;;;;7.22;4.93;;;;;;;;;;5049896;28;20041;-63
2024/01/09 10:05:40;;;;;;;10.15;6.07;;;;;;;;;;5040719;28;20098;-63
2024/01/09 10:08:10;;;;;;;10.55;6.03;;;;;;;;;;5049110;28;20033;-63
2024/01/09 10:10:36;;;;;;;10.30;5.82;;;;;;;;;;5042468;28;20035;-62
2024/01/09 10:13:02;;;;;;;9.30;6.15;;;;;;;;;;5034496;28;20044;-62
2024/01/09 10:15:28;;;;;;;10.65;6.30;;;;;;;;;;5051261;28;20060;-64
2024/01/09 10:17:54;;;;;;;10.70;6.80;;;;;;;;;;5051266;28;20352;-63
2024/01/09 10:20:20;;;;;;;9.82;6.35;;;;;;;;;;5053322;28;20025;-63
2024/01/09 10:22:45;;;;;;;12.70;6.80;;;;;;;;;;5034768;28;20093;-62
2024/01/09 10:25:12;;;;;;;11.25;6.85;;;;;;;;;;5053139;28;20029;-66
2024/01/09 10:27:39;;;;;;;10.55;6.55;;;;;;;;;;5052414;28;20037;-63
2024/01/09 10:30:07;;;;;;;10.95;6.78;;;;;;;;;;5053348;28;20025;-64
2024/01/09 10:32:33;;;;;;;10.43;6.55;;;;;;;;;;5052951;28;20047;-64
2024/01/09 10:34:59;;;;;;;11.50;6.65;;;;;;;;;;5052654;28;20083;-62
2024/01/09 10:37:25;;;;;;;10.20;6.75;;;;;;;;;;5053115;28;20033;-62
2024/01/09 10:39:51;;;;;;;11.82;7.35;;;;;;;;;;5052219;28;20037;-62
2024/01/09 10:42:20;;;;;;;12.23;7.18;;;;;;;;;;5034385;28;20517;-63
2024/01/09 10:44:47;;;;;;;9.68;6.70;;;;;;;;;;5052247;28;20469;-64
2024/01/09 10:47:17;;;;;;;10.85;7.45;;;;;;;;;;5052949;28;20025;-62
2024/01/09 10:49:44;;;;;;;9.80;7.25;;;;;;;;;;5052097;28;20127;-64
2024/01/09 10:52:14;;;;;;;10.65;7.70;;;;;;;;;;5052905;28;20377;-63
2024/01/09 10:54:41;;;;;;;10.48;7.63;;;;;;;;;;5034400;28;20125;-62
2024/01/09 10:57:10;;;;;;;10.43;7.80;;;;;;;;;;5052567;28;20032;-63
2024/01/09 10:59:37;;;;;;;10.20;7.90;;;;;;;;;;5052244;28;20033;-62
2024/01/09 11:02:03;;;;;;;12.95;8.75;;;;;;;;;;5052755;28;20473;-63
2024/01/09 11:04:29;;;;;;;10.57;8.40;;;;;;;;;;5052563;28;20048;-62
2024/01/09 11:06:55;;;;;;;11.68;9.20;;;;;;;;;;5051804;28;20024;-62
2024/01/09 11:09:22;;;;;;;11.20;9.43;;;;;;;;;;5052827;28;20055;-62
2024/01/09 11:11:49;;;;;;;15.65;10.13;;;;;;;;;;5053728;28;20029;-65
2024/01/09 11:14:16;;;;;;;12.45;10.43;;;;;;;;;;5054013;28;20025;-62
2024/01/09 11:16:43;;;;;;;13.27;11.13;;;;;;;;;;5053127;28;20041;-62
2024/01/09 11:19:12;;;;;;;14.05;11.35;;;;;;;;;;5050597;28;20036;-62
2024/01/09 11:21:37;;;;;;;12.40;11.18;;;;;;;;;;5033760;28;20033;-63
2024/01/09 11:24:03;;;;;;;13.27;11.88;;;;;;;;;;5051725;28;20036;-63
2024/01/09 11:26:32;;;;;;;13.98;12.13;;;;;;;;;;5050907;28;20071;-63
2024/01/09 11:28:59;;;;;;;14.90;12.02;;;;;;;;;;5051241;28;20674;-63
2024/01/09 11:31:26;;;;;;;14.18;12.27;;;;;;;;;;5048918;28;20044;-62
2024/01/09 11:33:55;;;;;;;14.10;12.60;;;;;;;;;;5045352;28;20029;-62
2024/01/09 11:36:26;;;;;;;15.30;12.68;;;;;;;;;;5038821;28;20448;-63
2024/01/09 11:38:54;;;;;;;;;;;;;;;;;;5049682;28;20366;-62
2024/01/09 11:41:29;;;;;;;13.57;12.18;;;;;;;;;;5049886;28;19970;-62
2024/01/09 11:44:00;;;;;;;13.75;12.32;;;;;;;;;;5050451;28;20058;-62
2024/01/09 11:46:29;;;;;;;13.52;12.13;;;;;;;;;;5044568;28;20029;-62
2024/01/09 11:48:55;;;;;;;14.57;12.38;;;;;;;;;;5037907;28;20375;-62
2024/01/09 11:51:24;;;;;;;14.88;13.27;;;;;;;;;;5031675;28;20027;-63
2024/01/09 11:53:50;;;;;;;14.65;12.90;;;;;;;;;;5042095;28;20033;-62
2024/01/09 11:56:16;;;;;;;13.82;12.43;;;;;;;;;;5051840;28;20033;-62
2024/01/09 11:58:43;;;;;;;14.30;12.90;;;;;;;;;;5048916;28;20102;-62
2024/01/09 12:01:09;;;;;;;14.60;13.07;;;;;;;;;;5051685;28;20037;-62
2024/01/09 12:03:34;;;;;;;14.27;12.73;;;;;;;;;;5049295;28;20036;-62
2024/01/09 12:06:01;;;;;;;14.82;13.23;;;;;;;;;;5049526;28;20032;-62
2024/01/09 12:08:28;;;;;;;14.85;13.35;;;;;;;;;;5035320;28;20075;-62
2024/01/09 12:10:54;;;;;;;14.05;12.57;;;;;;;;;;5050046;28;20040;-64
2024/01/09 12:13:20;;;;;;;13.90;12.50;;;;;;;;;;5049943;28;20393;-64
2024/01/09 12:15:46;;;;;;;14.60;13.10;;;;;;;;;;5032277;28;20033;-64
2024/01/09 12:18:11;;;;;;;13.70;12.30;;;;;;;;;;5031658;28;20036;-63
2024/01/09 12:20:38;;;;;;;15.27;13.52;;;;;;;;;;5048814;28;20036;-63
2024/01/09 12:23:04;;;;;;;15.02;13.30;;;;;;;;;;5050236;28;20025;-63
2024/01/09 12:25:30;;;;;;;14.93;12.80;;;;;;;;;;5050224;28;20040;-63
2024/01/09 12:27:55;;;;;;;14.77;13.23;;;;;;;;;;5050425;28;20032;-62
2024/01/09 12:30:22;;;;;;;18.55;13.10;;;;;;;;;;5049430;28;20082;-63
2024/01/09 12:32:48;;;;;;;14.52;13.00;;;;;;;;;;5030954;28;20367;-62
2024/01/09 12:35:14;;;;;;;15.00;12.85;;;;;;;;;;5050776;28;20091;-63
2024/01/09 12:37:39;;;;;;;14.70;13.20;;;;;;;;;;5039041;28;20458;-62
2024/01/09 12:40:09;;;;;;;15.07;13.27;;;;;;;;;;5031543;28;20095;-63
2024/01/09 12:42:35;;;;;;;15.73;14.13;;;;;;;;;;5049034;28;20056;-62
2024/01/09 12:45:01;;;;;;;15.07;13.50;;;;;;;;;;5048341;28;20029;-62
2024/01/09 12:47:28;;;;;;;15.40;13.63;;;;;;;;;;5038682;28;20029;-63
2024/01/09 12:49:54;;;;;;;14.75;13.23;;;;;;;;;;5030505;28;20044;-63
2024/01/09 12:52:20;;;;;;;15.10;13.50;;;;;;;;;;5047259;28;20374;-63
2024/01/09 12:54:47;;;;;;;15.77;14.07;;;;;;;;;;5048923;28;20096;-62
2024/01/09 12:57:13;;;;;;;17.02;14.43;;;;;;;;;;5049338;28;20052;-62
2024/01/09 12:59:39;;;;;;;15.32;13.32;;;;;;;;;;5050957;28;20029;-62
2024/01/09 13:02:05;;;;;;;15.30;13.15;;;;;;;;;;5047475;28;20040;-62
2024/01/09 13:04:31;;;;;;;19.38;13.75;;;;;;;;;;5051917;28;20040;-62
2024/01/09 13:06:57;;;;;;;15.00;13.40;;;;;;;;;;5048272;28;20513;-62
2024/01/09 13:09:24;;;;;;;15.32;13.68;;;;;;;;;;5053207;28;20392;-62
2024/01/09 13:11:49;;;;;;;17.83;14.00;;;;;;;;;;5050403;28;20040;-62
2024/01/09 13:14:15;;;;;;;15.02;13.43;;;;;;;;;;5054730;28;20033;-62
2024/01/09 13:16:41;;;;;;;15.38;13.77;;;;;;;;;;5045701;28;20036;-61
2024/01/09 13:19:06;;;;;;;16.45;14.10;;;;;;;;;;5033783;28;20037;-62
2024/01/09 13:21:32;;;;;;;15.32;13.65;;;;;;;;;;5044704;28;20036;-64
2024/01/09 13:23:58;;;;;;;18.00;14.50;;;;;;;;;;5053603;28;20025;-62
2024/01/09 13:26:23;;;;;;;15.93;14.10;;;;;;;;;;5052581;28;20064;-63
2024/01/09 13:28:49;;;;;;;15.55;13.85;;;;;;;;;;5052637;28;20369;-63
2024/01/09 13:31:14;;;;;;;15.73;13.82;;;;;;;;;;5052032;28;20047;-63
2024/01/09 13:33:40;;;;;;;15.55;13.80;;;;;;;;;;5053116;28;20068;-63
2024/01/09 13:36:06;;;;;;;15.65;13.70;;;;;;;;;;5053066;28;20036;-62
2024/01/09 13:38:32;;;;;;;15.52;13.75;;;;;;;;;;5053234;28;20036;-63
2024/01/09 13:40:57;;;;;;;15.48;13.80;;;;;;;;;;5051446;28;20478;-62
2024/01/09 13:43:23;;;;;;;16.13;14.35;;;;;;;;;;5052339;28;20078;-62
2024/01/09 13:45:54;;;;;;;15.85;14.20;;;;;;;;;;5051948;28;20385;-62
2024/01/09 13:48:20;;;;;;;17.88;14.85;;;;;;;;;;5052149;28;20044;-63
2024/01/09 13:50:47;;;;;;;15.30;13.70;;;;;;;;;;5053518;28;20036;-63
2024/01/09 13:53:15;;;;;;;16.35;14.38;;;;;;;;;;5052765;28;20036;-63
2024/01/09 13:55:41;;;;;;;17.27;14.32;;;;;;;;;;5042343;28;20120;-63
2024/01/09 13:58:06;;;;;;;16.08;14.38;;;;;;;;;;5031819;28;20322;-62
2024/01/09 14:00:32;;;;;;;16.48;14.27;;;;;;;;;;5042514;28;20454;-62
2024/01/09 14:02:59;;;;;;;16.15;14.32;;;;;;;;;;5050530;28;20060;-63
2024/01/09 14:05:25;;;;;;;16.38;14.68;;;;;;;;;;5038944;28;20102;-63
2024/01/09 14:07:51;;;;;;;16.05;14.38;;;;;;;;;;5049106;28;20465;-62
2024/01/09 14:10:16;;;;;;;16.40;14.15;;;;;;;;;;5052167;28;20037;-62
2024/01/09 14:12:42;;;;;;;15.63;13.95;;;;;;;;;;5041385;28;20037;-64
2024/01/09 14:15:08;;;;;;;15.70;14.02;;;;;;;;;;5050033;28;20642;-62
2024/01/09 14:17:34;;;;;;;17.83;13.95;;;;;;;;;;5051441;28;20033;-63
2024/01/09 14:20:00;;;;;;;17.30;14.52;;;;;;;;;;5032596;28;20458;-62
2024/01/09 14:22:26;;;;;;;17.67;14.95;;;;;;;;;;5051051;28;20099;-62
2024/01/09 14:24:52;;;;;;;16.55;14.80;;;;;;;;;;5051796;28;20043;-63